NCBI
dbSNP

dbVar ClinVar GaP PubMed Nucleotide Protein
Search small variations in dbSNP or large structural variations in dbVar
transparent GIF
Spacer gif
Have a question about dbSNP? Try searching the SNP FAQ Archive!

Spacer gif
View SNP Submission Batch
Submitter Handle:ILLUMINA
Submitter Batch ID:HumanExome-12v1-1
Submitter Method ID:ILLUMINA-CUSTOMERIZED-CHIP
Citation:not supplied
Comment:Illumina, Inc. Descriptor File Name,HumanExome-12v1-1_B.bpm
Batch Total SubSNP(ss) Count:242862


SubSNP(ss) Submitter
SNP_ID
SNP
Allele
Samplesize RefSNP(rs) ss2rs
Orien
Chr ChrPos Contig
Accession
Contig
Pos
ss1917715341 HumanExome-12v1-1_B_exm-rs41531144-132_T_R_1990486736 C/T 242901 rs41531144 0 MT 217 NC_012920.1 217
ss1917715342 HumanExome-12v1-1_B_exm-rs41323649-132_B_R_1990477623 A/G 242901 rs41323649 0 MT 228 NC_012920.1 228
ss1917715343 HumanExome-12v1-1_B_exm2263307-0_B_F_1978044876 C/T 242901 rs201801609 0 MT 285 NC_012920.1 285
ss1917715344 HumanExome-12v1-1_B_exm2216184-0_B_F_1955482079 C/T 242901 rs201236789 0 MT 418 NC_012920.1 418
ss1917715345 HumanExome-12v1-1_B_exm-rs28625645-132_B_F_1990477612 C/T 242901 rs28625645 0 MT 489 NC_012920.1 489
ss1917715346 HumanExome-12v1-1_B_exm-rs3901846-132_T_F_1990486723 A/G 242901 rs3901846 0 MT 499 NC_012920.1 499
ss1917715347 HumanExome-12v1-1_B_exm2216185-0_T_F_1955482600 A/G 242901 rs200056066 0 MT 606 NC_012920.1 606
ss1917715348 HumanExome-12v1-1_B_exm2216186-0_B_F_1955482357 C/T 242901 rs201031012 0 MT 629 NC_012920.1 629
ss1917715349 HumanExome-12v1-1_B_exm2216190-0_B_R_1955482118 A/G 242901 rs2853517 0 MT 709 NC_012920.1 709
ss1917715350 HumanExome-12v1-1_B_exm2216191-0_T_R_1955482561 C/T 242901 rs28358568 0 MT 710 NC_012920.1 710
ss1917715351 HumanExome-12v1-1_B_exm2216198-0_T_R_1955482280 C/T 242901 rs28358570 0 MT 921 NC_012920.1 921
ss1917715352 HumanExome-12v1-1_B_exm2216200-0_B_R_1955482394 A/G 242901 rs200887992 0 MT 951 NC_012920.1 951
ss1917715353 HumanExome-12v1-1_B_exm2216201-0_B_F_1955482568 C/T 242901 rs3888511 0 MT 961 NC_012920.1 961
ss1917715354 HumanExome-12v1-1_B_exm2216202-0_B_F_1955482163 C/T 242901 rs111033179 0 MT 1005 NC_012920.1 1005
ss1917715355 HumanExome-12v1-1_B_exm2216203-0_T_F_1955482325 A/G 242901 rs2856982 0 MT 1018 NC_012920.1 1018
ss1917715356 HumanExome-12v1-1_B_exm2216204-0_B_F_1955482139 C/T 242901 rs2000974 0 MT 1048 NC_012920.1 1048
ss1917715357 HumanExome-12v1-1_B_exm2216208-0_T_R_1955482589 C/T 242901 rs28358572 0 MT 1243 NC_012920.1 1243
ss1917715358 HumanExome-12v1-1_B_exm2216209-0_B_R_1955482390 A/C 242901 rs111033358 0 MT 1382 NC_012920.1 1382
ss1917715359 HumanExome-12v1-1_B_exm2216210-0_T_F_1955482423 A/G 242901 rs111033325 0 MT 1393 NC_012920.1 1393
ss1917715360 HumanExome-12v1-1_B_exm2216211-0_B_F_1955482327 C/T 242901 rs111033322 0 MT 1406 NC_012920.1 1406
ss1917715361 HumanExome-12v1-1_B_exm2216212-0_B_F_1955482081 C/T 242901 rs201251530 0 MT 1413 NC_012920.1 1413
ss1917715362 HumanExome-12v1-1_B_exm2216213-0_T_F_1955482289 A/G 242901 rs2001030 0 MT 1438 NC_012920.1 1438
ss1917715363 HumanExome-12v1-1_B_exm2216214-0_T_F_1955482580 A/G 242901 rs28358573 0 MT 1442 NC_012920.1 1442
ss1917715364 HumanExome-12v1-1_B_exm2216216-0_B_R_1955482316 A/G 242901 rs200807305 0 MT 1664 NC_012920.1 1664
ss1917715365 HumanExome-12v1-1_B_exm2216217-0_T_R_1955482130 C/T 242901 rs201873294 0 MT 1694 NC_012920.1 1694
ss1917715366 HumanExome-12v1-1_B_exm2216218-0_T_R_1955482360 C/T 242901 rs2854126 0 MT 1700 NC_012920.1 1700
ss1917715367 HumanExome-12v1-1_B_exm2216219-0_T_R_1955482565 C/T 242901 rs28527344 0 MT 1703 NC_012920.1 1703
ss1917715368 HumanExome-12v1-1_B_exm2216220-0_T_R_1955482378 C/T 242901 rs202116303 0 MT 1706 NC_012920.1 1706
ss1917715369 HumanExome-12v1-1_B_exm2216221-0_B_R_1955482272 A/G 242901 rs200251800 0 MT 1709 NC_012920.1 1709
ss1917715370 HumanExome-12v1-1_B_exm2216222-0_B_F_1955482087 C/T 242901 rs879199899 0 MT 1717 NC_012920.1 1717
30 of 242862 subsnp's starting at ss1917715341. ss# starting at ss